sensor_id;sensor_type;location;lat;lon;timestamp;pressure;altitude;pressure_sealevel;temperature;humidity
69593;BME280;56796;50.122;14.468;2023-04-04T00:02:07;989.34;;;0.82;72.33
69593;BME280;56796;50.122;14.468;2023-04-04T00:21:33;989.17;;;0.67;72.83
69593;BME280;56796;50.122;14.468;2023-04-04T00:40:58;989.05;;;0.36;74.7
69593;BME280;56796;50.122;14.468;2023-04-04T01:00:26;988.92;;;0.21;75.95
69593;BME280;56796;50.122;14.468;2023-04-04T01:19:45;988.79;;;0.06;77.63
69593;BME280;56796;50.122;14.468;2023-04-04T01:39:09;988.65;;;0.03;77.75
69593;BME280;56796;50.122;14.468;2023-04-04T01:58:34;988.57;;;0.04;77.99
69593;BME280;56796;50.122;14.468;2023-04-04T02:18:00;988.56;;;-0.04;78.03
69593;BME280;56796;50.122;14.468;2023-04-04T02:37:26;988.51;;;-0.09;78.79
69593;BME280;56796;50.122;14.468;2023-04-04T02:56:52;988.44;;;-0.29;79.38
69593;BME280;56796;50.122;14.468;2023-04-04T03:16:17;988.5;;;-0.45;79.79
69593;BME280;56796;50.122;14.468;2023-04-04T03:35:43;988.49;;;-0.38;79.86
69593;BME280;56796;50.122;14.468;2023-04-04T03:55:09;988.42;;;-0.26;78.8
69593;BME280;56796;50.122;14.468;2023-04-04T04:14:36;988.41;;;-0.11;76.66
69593;BME280;56796;50.122;14.468;2023-04-04T04:34:03;988.6;;;0.12;74.91
69593;BME280;56796;50.122;14.468;2023-04-04T04:53:30;988.56;;;0.2;74.42
69593;BME280;56796;50.122;14.468;2023-04-04T05:12:55;988.56;;;0.35;74.48
69593;BME280;56796;50.122;14.468;2023-04-04T05:32:22;988.66;;;0.51;74.78
69593;BME280;56796;50.122;14.468;2023-04-04T05:51:49;988.69;;;0.76;73.34
69593;BME280;56796;50.122;14.468;2023-04-04T06:11:16;988.83;;;1.12;71.37
69593;BME280;56796;50.122;14.468;2023-04-04T06:30:52;988.6;;;3.2;61.65
69593;BME280;56796;50.122;14.468;2023-04-04T06:50:19;988.55;;;4.34;55.72
69593;BME280;56796;50.122;14.468;2023-04-04T07:09:43;988.58;;;4.52;52.5
69593;BME280;56796;50.122;14.468;2023-04-04T07:29:08;988.59;;;5.63;49.47
69593;BME280;56796;50.122;14.468;2023-04-04T07:48:30;988.55;;;4.98;50.22
69593;BME280;56796;50.122;14.468;2023-04-04T08:07:50;988.57;;;2.91;53.2
69593;BME280;56796;50.122;14.468;2023-04-04T08:27:13;988.49;;;4.11;53.76
69593;BME280;56796;50.122;14.468;2023-04-04T08:46:44;988.35;;;5.9;52.14
69593;BME280;56796;50.122;14.468;2023-04-04T09:06:01;988.44;;;3.45;56.03
69593;BME280;56796;50.122;14.468;2023-04-04T09:25:29;988.21;;;4.62;52.57
69593;BME280;56796;50.122;14.468;2023-04-04T09:44:53;988.26;;;5.04;53.86
69593;BME280;56796;50.122;14.468;2023-04-04T10:04:37;988.09;;;7.59;45.29
69593;BME280;56796;50.122;14.468;2023-04-04T10:24:08;988.12;;;6.81;44.01
69593;BME280;56796;50.122;14.468;2023-04-04T10:43:39;988.08;;;6.43;46.55
69593;BME280;56796;50.122;14.468;2023-04-04T11:03:09;987.73;;;8.96;39.95
69593;BME280;56796;50.122;14.468;2023-04-04T11:22:34;987.61;;;8.87;39.97
69593;BME280;56796;50.122;14.468;2023-04-04T11:42:12;987.29;;;9.75;38.62
69593;BME280;56796;50.122;14.468;2023-04-04T12:01:24;987.32;;;8.24;41.58
69593;BME280;56796;50.122;14.468;2023-04-04T12:20:50;987.2;;;9.45;38.47
69593;BME280;56796;50.122;14.468;2023-04-04T12:40:10;987.28;;;6.73;40.43
69593;BME280;56796;50.122;14.468;2023-04-04T12:59:37;987.08;;;9.51;38.07
69593;BME280;56796;50.122;14.468;2023-04-04T13:19:00;986.97;;;8.13;39.48
69593;BME280;56796;50.122;14.468;2023-04-04T13:38:27;986.85;;;8.34;39.32
69593;BME280;56796;50.122;14.468;2023-04-04T13:57:57;986.67;;;8.18;40.09
69593;BME280;56796;50.122;14.468;2023-04-04T14:17:04;986.81;;;8.41;41.1
69593;BME280;56796;50.122;14.468;2023-04-04T14:36:24;986.85;;;6.93;41.41
69593;BME280;56796;50.122;14.468;2023-04-04T14:55:50;986.9;;;5.84;43.55
69593;BME280;56796;50.122;14.468;2023-04-04T15:15:18;986.74;;;6.4;42.43
69593;BME280;56796;50.122;14.468;2023-04-04T15:34:29;986.69;;;6.1;43.38
69593;BME280;56796;50.122;14.468;2023-04-04T15:53:54;986.71;;;5.06;45.43
69593;BME280;56796;50.122;14.468;2023-04-04T16:13:17;986.62;;;5.42;46.66
69593;BME280;56796;50.122;14.468;2023-04-04T16:32:41;986.64;;;4.69;46.95
69593;BME280;56796;50.122;14.468;2023-04-04T16:52:05;986.61;;;4.07;47.75
69593;BME280;56796;50.122;14.468;2023-04-04T17:11:29;986.58;;;3.53;49.78
69593;BME280;56796;50.122;14.468;2023-04-04T17:30:52;986.6;;;3.05;52.95
69593;BME280;56796;50.122;14.468;2023-04-04T17:50:17;986.71;;;2.77;53.74
69593;BME280;56796;50.122;14.468;2023-04-04T18:09:41;986.89;;;2.43;54.91
69593;BME280;56796;50.122;14.468;2023-04-04T18:29:06;986.9;;;2.19;56.45
69593;BME280;56796;50.122;14.468;2023-04-04T18:48:31;987.09;;;2;57.41
69593;BME280;56796;50.122;14.468;2023-04-04T19:08:02;987.21;;;1.82;57.72
69593;BME280;56796;50.122;14.468;2023-04-04T19:27:14;987.1;;;1.54;58.3
69593;BME280;56796;50.122;14.468;2023-04-04T19:46:37;987.18;;;1.41;59.34
69593;BME280;56796;50.122;14.468;2023-04-04T20:06:04;987.13;;;1.45;59.15
69593;BME280;56796;50.122;14.468;2023-04-04T20:44:55;987.16;;;1.11;59.8
69593;BME280;56796;50.122;14.468;2023-04-04T21:04:21;987.14;;;0.87;60.33
69593;BME280;56796;50.122;14.468;2023-04-04T21:23:47;987.21;;;0.74;60.87
69593;BME280;56796;50.122;14.468;2023-04-04T21:43:09;987.19;;;0.71;61.4
69593;BME280;56796;50.122;14.468;2023-04-04T22:02:35;987.14;;;0.38;62.85
69593;BME280;56796;50.122;14.468;2023-04-04T22:21:59;987.13;;;0.33;63.12
69593;BME280;56796;50.122;14.468;2023-04-04T22:41:26;987.06;;;0.38;62.9
69593;BME280;56796;50.122;14.468;2023-04-04T23:00:51;987.01;;;0.37;63.39
69593;BME280;56796;50.122;14.468;2023-04-04T23:20:17;986.88;;;0.31;64.35
69593;BME280;56796;50.122;14.468;2023-04-04T23:39:42;986.74;;;0.18;65.15
69593;BME280;56796;50.122;14.468;2023-04-04T23:59:07;986.72;;;0.17;66.05
